sensor_id;sensor_type;location;lat;lon;timestamp;pressure;altitude;pressure_sealevel;temperature;humidity
41140;BME280;26881;48.784;9.192;2023-02-04T00:05:21;99824.06;;;8.92;86.33
41140;BME280;26881;48.784;9.192;2023-02-04T00:10:42;99803.59;;;8.80;87.37
41140;BME280;26881;48.784;9.192;2023-02-04T00:16:05;99810.78;;;8.73;87.82
41140;BME280;26881;48.784;9.192;2023-02-04T00:21:26;99817.09;;;8.66;88.40
41140;BME280;26881;48.784;9.192;2023-02-04T00:26:48;99812.63;;;8.70;88.34
41140;BME280;26881;48.784;9.192;2023-02-04T00:32:10;99828.69;;;8.84;87.08
41140;BME280;26881;48.784;9.192;2023-02-04T00:37:32;99841.63;;;8.87;85.17
41140;BME280;26881;48.784;9.192;2023-02-04T00:42:54;99840.84;;;8.85;85.47
41140;BME280;26881;48.784;9.192;2023-02-04T00:48:15;99851.41;;;8.80;84.38
41140;BME280;26881;48.784;9.192;2023-02-04T00:53:37;99850.41;;;8.84;84.55
41140;BME280;26881;48.784;9.192;2023-02-04T00:58:59;99863.19;;;8.94;85.27
41140;BME280;26881;48.784;9.192;2023-02-04T01:04:21;99875.25;;;8.70;88.19
41140;BME280;26881;48.784;9.192;2023-02-04T01:09:43;99865.16;;;8.57;89.72
41140;BME280;26881;48.784;9.192;2023-02-04T01:15:05;99865.94;;;8.61;91.01
41140;BME280;26881;48.784;9.192;2023-02-04T01:20:27;99869.41;;;8.60;92.25
41140;BME280;26881;48.784;9.192;2023-02-04T01:25:50;99851.25;;;8.57;92.44
41140;BME280;26881;48.784;9.192;2023-02-04T01:31:12;99882.03;;;8.46;93.61
41140;BME280;26881;48.784;9.192;2023-02-04T01:36:34;99875.09;;;8.44;92.82
41140;BME280;26881;48.784;9.192;2023-02-04T01:41:56;99887.22;;;8.46;92.85
41140;BME280;26881;48.784;9.192;2023-02-04T01:47:18;99883.59;;;8.51;90.06
41140;BME280;26881;48.784;9.192;2023-02-04T01:52:41;99886.13;;;8.54;88.34
41140;BME280;26881;48.784;9.192;2023-02-04T01:58:04;99875.84;;;8.48;87.80
41140;BME280;26881;48.784;9.192;2023-02-04T02:03:26;99887.22;;;8.46;86.39
41140;BME280;26881;48.784;9.192;2023-02-04T02:08:48;99894.97;;;8.49;85.46
41140;BME280;26881;48.784;9.192;2023-02-04T02:14:10;99903.00;;;8.41;84.75
41140;BME280;26881;48.784;9.192;2023-02-04T02:19:35;99919.69;;;8.34;84.44
41140;BME280;26881;48.784;9.192;2023-02-04T02:24:58;99915.41;;;8.31;84.60
41140;BME280;26881;48.784;9.192;2023-02-04T02:30:20;99925.81;;;8.33;86.08
41140;BME280;26881;48.784;9.192;2023-02-04T02:35:43;99934.16;;;8.14;84.86
41140;BME280;26881;48.784;9.192;2023-02-04T02:41:09;99950.13;;;8.02;85.48
41140;BME280;26881;48.784;9.192;2023-02-04T02:46:31;99930.03;;;8.06;85.82
41140;BME280;26881;48.784;9.192;2023-02-04T02:51:53;99943.88;;;8.08;85.59
41140;BME280;26881;48.784;9.192;2023-02-04T02:57:18;99938.56;;;8.11;86.18
41140;BME280;26881;48.784;9.192;2023-02-04T03:02:40;99938.75;;;8.05;86.24
41140;BME280;26881;48.784;9.192;2023-02-04T03:08:03;99949.31;;;7.98;85.82
41140;BME280;26881;48.784;9.192;2023-02-04T03:13:25;99957.38;;;7.89;86.73
41140;BME280;26881;48.784;9.192;2023-02-04T03:18:48;99969.75;;;7.81;86.75
41140;BME280;26881;48.784;9.192;2023-02-04T03:24:10;99967.16;;;7.81;87.71
41140;BME280;26881;48.784;9.192;2023-02-04T03:29:32;99974.75;;;7.90;87.77
41140;BME280;26881;48.784;9.192;2023-02-04T03:34:54;99979.81;;;7.95;87.03
41140;BME280;26881;48.784;9.192;2023-02-04T03:40:15;99986.88;;;7.90;87.47
41140;BME280;26881;48.784;9.192;2023-02-04T03:45:37;99986.72;;;7.97;87.68
41140;BME280;26881;48.784;9.192;2023-02-04T03:51:06;100001.75;;;7.86;88.15
41140;BME280;26881;48.784;9.192;2023-02-04T03:56:28;100001.88;;;7.81;88.43
41140;BME280;26881;48.784;9.192;2023-02-04T04:01:50;100010.41;;;7.87;89.18
41140;BME280;26881;48.784;9.192;2023-02-04T04:07:13;100016.59;;;7.82;88.41
41140;BME280;26881;48.784;9.192;2023-02-04T04:12:34;100024.59;;;7.75;89.00
41140;BME280;26881;48.784;9.192;2023-02-04T04:17:56;100026.25;;;7.77;88.92
41140;BME280;26881;48.784;9.192;2023-02-04T04:23:18;100034.00;;;7.80;89.53
41140;BME280;26881;48.784;9.192;2023-02-04T04:28:40;100038.78;;;7.62;89.25
41140;BME280;26881;48.784;9.192;2023-02-04T04:34:01;100046.50;;;7.66;89.90
41140;BME280;26881;48.784;9.192;2023-02-04T04:39:23;100047.22;;;7.71;89.47
41140;BME280;26881;48.784;9.192;2023-02-04T04:44:45;100044.63;;;7.71;89.76
41140;BME280;26881;48.784;9.192;2023-02-04T04:50:07;100053.13;;;7.79;89.21
41140;BME280;26881;48.784;9.192;2023-02-04T04:55:29;100046.16;;;7.80;89.36
41140;BME280;26881;48.784;9.192;2023-02-04T05:00:51;100049.72;;;7.76;89.66
41140;BME280;26881;48.784;9.192;2023-02-04T05:06:12;100049.69;;;7.79;89.69
41140;BME280;26881;48.784;9.192;2023-02-04T05:11:34;100050.53;;;7.79;89.24
41140;BME280;26881;48.784;9.192;2023-02-04T05:16:56;100055.03;;;7.71;89.30
41140;BME280;26881;48.784;9.192;2023-02-04T05:22:18;100051.56;;;7.72;88.79
41140;BME280;26881;48.784;9.192;2023-02-04T05:27:39;100056.38;;;7.89;87.62
41140;BME280;26881;48.784;9.192;2023-02-04T05:33:01;100072.47;;;7.69;88.58
41140;BME280;26881;48.784;9.192;2023-02-04T05:38:23;100078.75;;;7.60;88.51
41140;BME280;26881;48.784;9.192;2023-02-04T05:43:45;100086.56;;;7.60;88.46
41140;BME280;26881;48.784;9.192;2023-02-04T05:49:06;100080.44;;;7.63;88.49
41140;BME280;26881;48.784;9.192;2023-02-04T05:54:28;100077.91;;;7.60;88.72
41140;BME280;26881;48.784;9.192;2023-02-04T05:59:50;100063.97;;;7.61;89.30
41140;BME280;26881;48.784;9.192;2023-02-04T06:05:12;100081.28;;;7.62;88.75
41140;BME280;26881;48.784;9.192;2023-02-04T06:10:34;100098.63;;;7.65;88.28
41140;BME280;26881;48.784;9.192;2023-02-04T06:15:55;100105.72;;;7.58;88.80
41140;BME280;26881;48.784;9.192;2023-02-04T06:21:17;100107.53;;;7.53;88.53
41140;BME280;26881;48.784;9.192;2023-02-04T06:26:39;100119.78;;;7.49;89.30
41140;BME280;26881;48.784;9.192;2023-02-04T06:32:01;100124.19;;;7.46;89.21
41140;BME280;26881;48.784;9.192;2023-02-04T06:37:23;100127.50;;;7.52;89.06
41140;BME280;26881;48.784;9.192;2023-02-04T06:42:45;100138.75;;;7.56;88.79
41140;BME280;26881;48.784;9.192;2023-02-04T06:48:06;100140.03;;;7.35;89.29
41140;BME280;26881;48.784;9.192;2023-02-04T06:53:28;100148.59;;;7.40;89.63
41140;BME280;26881;48.784;9.192;2023-02-04T06:58:50;100155.31;;;7.50;89.19
41140;BME280;26881;48.784;9.192;2023-02-04T07:04:12;100177.16;;;7.43;88.45
41140;BME280;26881;48.784;9.192;2023-02-04T07:09:33;100168.44;;;7.46;88.92
41140;BME280;26881;48.784;9.192;2023-02-04T07:14:55;100176.38;;;7.39;88.87
41140;BME280;26881;48.784;9.192;2023-02-04T07:20:17;100185.06;;;7.38;88.80
41140;BME280;26881;48.784;9.192;2023-02-04T07:25:39;100205.94;;;7.37;88.36
41140;BME280;26881;48.784;9.192;2023-02-04T07:31:00;100208.56;;;7.35;87.72
41140;BME280;26881;48.784;9.192;2023-02-04T07:36:22;100216.34;;;7.37;86.78
41140;BME280;26881;48.784;9.192;2023-02-04T07:41:44;100217.41;;;7.27;86.80
41140;BME280;26881;48.784;9.192;2023-02-04T07:47:06;100212.09;;;7.31;85.29
41140;BME280;26881;48.784;9.192;2023-02-04T07:52:28;100232.16;;;7.28;84.93
41140;BME280;26881;48.784;9.192;2023-02-04T07:57:49;100223.44;;;7.29;84.28
41140;BME280;26881;48.784;9.192;2023-02-04T08:03:11;100251.31;;;7.24;82.90
41140;BME280;26881;48.784;9.192;2023-02-04T08:08:33;100259.09;;;7.25;82.08
41140;BME280;26881;48.784;9.192;2023-02-04T08:13:54;100257.25;;;7.30;82.31
41140;BME280;26881;48.784;9.192;2023-02-04T08:19:16;100263.50;;;7.20;82.09
41140;BME280;26881;48.784;9.192;2023-02-04T08:24:41;100263.50;;;7.20;82.30
41140;BME280;26881;48.784;9.192;2023-02-04T08:30:04;100278.09;;;7.29;81.18
41140;BME280;26881;48.784;9.192;2023-02-04T08:35:26;100282.44;;;7.30;81.14
41140;BME280;26881;48.784;9.192;2023-02-04T08:40:47;100284.28;;;7.22;81.32
41140;BME280;26881;48.784;9.192;2023-02-04T08:46:09;100280.00;;;7.21;80.47
41140;BME280;26881;48.784;9.192;2023-02-04T08:51:31;100292.13;;;7.20;81.21
41140;BME280;26881;48.784;9.192;2023-02-04T08:56:53;100296.22;;;7.33;80.73
41140;BME280;26881;48.784;9.192;2023-02-04T09:02:15;100305.72;;;7.36;81.96
41140;BME280;26881;48.784;9.192;2023-02-04T09:07:36;100309.38;;;7.26;82.89
41140;BME280;26881;48.784;9.192;2023-02-04T09:12:58;100312.84;;;7.25;83.93
41140;BME280;26881;48.784;9.192;2023-02-04T09:18:20;100316.59;;;7.10;85.19
41140;BME280;26881;48.784;9.192;2023-02-04T09:23:43;100326.91;;;7.16;84.78
41140;BME280;26881;48.784;9.192;2023-02-04T09:29:07;100333.91;;;7.11;84.80
41140;BME280;26881;48.784;9.192;2023-02-04T09:34:28;100339.84;;;7.21;85.17
41140;BME280;26881;48.784;9.192;2023-02-04T09:39:50;100347.66;;;7.19;85.05
41140;BME280;26881;48.784;9.192;2023-02-04T09:45:22;100349.28;;;7.25;82.42
41140;BME280;26881;48.784;9.192;2023-02-04T09:50:44;100370.69;;;7.42;76.29
41140;BME280;26881;48.784;9.192;2023-02-04T09:56:08;100371.47;;;7.47;72.72
41140;BME280;26881;48.784;9.192;2023-02-04T10:01:31;100369.47;;;7.63;71.43
41140;BME280;26881;48.784;9.192;2023-02-04T10:06:54;100367.69;;;7.65;71.62
41140;BME280;26881;48.784;9.192;2023-02-04T10:12:19;100360.66;;;7.70;66.09
41140;BME280;26881;48.784;9.192;2023-02-04T10:17:42;100358.72;;;7.80;67.21
41140;BME280;26881;48.784;9.192;2023-02-04T10:23:08;100370.06;;;7.77;68.48
41140;BME280;26881;48.784;9.192;2023-02-04T10:28:34;100361.47;;;7.72;67.31
41140;BME280;26881;48.784;9.192;2023-02-04T10:34:04;100360.53;;;7.76;66.88
41140;BME280;26881;48.784;9.192;2023-02-04T10:39:27;100358.88;;;7.72;66.92
41140;BME280;26881;48.784;9.192;2023-02-04T10:44:49;100358.91;;;7.71;69.68
41140;BME280;26881;48.784;9.192;2023-02-04T10:50:19;100350.97;;;7.77;68.73
41140;BME280;26881;48.784;9.192;2023-02-04T10:55:45;100352.69;;;7.78;65.83
41140;BME280;26881;48.784;9.192;2023-02-04T11:01:12;100347.38;;;7.82;64.32
41140;BME280;26881;48.784;9.192;2023-02-04T11:06:34;100356.13;;;7.80;65.95
41140;BME280;26881;48.784;9.192;2023-02-04T11:11:56;100354.84;;;8.01;62.90
41140;BME280;26881;48.784;9.192;2023-02-04T11:17:19;100362.66;;;8.01;64.86
41140;BME280;26881;48.784;9.192;2023-02-04T11:22:44;100357.44;;;8.02;66.20
41140;BME280;26881;48.784;9.192;2023-02-04T11:39:44;100353.72;;;8.13;64.36
41140;BME280;26881;48.784;9.192;2023-02-04T11:45:13;100355.06;;;7.90;64.20
41140;BME280;26881;48.784;9.192;2023-02-04T11:50:36;100359.22;;;7.99;65.04
41140;BME280;26881;48.784;9.192;2023-02-04T11:56:02;100356.69;;;7.96;64.38
41140;BME280;26881;48.784;9.192;2023-02-04T12:01:32;100355.59;;;8.06;64.22
41140;BME280;26881;48.784;9.192;2023-02-04T12:06:59;100360.13;;;7.96;64.26
41140;BME280;26881;48.784;9.192;2023-02-04T12:12:27;100365.25;;;8.02;65.14
41140;BME280;26881;48.784;9.192;2023-02-04T12:18:00;100370.38;;;8.06;63.11
41140;BME280;26881;48.784;9.192;2023-02-04T12:23:24;100373.84;;;8.06;61.88
41140;BME280;26881;48.784;9.192;2023-02-04T12:28:46;100360.59;;;8.18;61.77
41140;BME280;26881;48.784;9.192;2023-02-04T12:34:07;100368.41;;;8.18;61.87
41140;BME280;26881;48.784;9.192;2023-02-04T12:39:29;100367.34;;;8.27;61.43
41140;BME280;26881;48.784;9.192;2023-02-04T12:44:52;100359.69;;;8.19;60.72
41140;BME280;26881;48.784;9.192;2023-02-04T12:50:15;100368.34;;;8.20;61.55
41140;BME280;26881;48.784;9.192;2023-02-04T12:55:43;100370.97;;;8.20;60.04
41140;BME280;26881;48.784;9.192;2023-02-04T13:01:04;100374.63;;;8.11;60.31
41140;BME280;26881;48.784;9.192;2023-02-04T13:06:26;100366.63;;;8.20;61.50
41140;BME280;26881;48.784;9.192;2023-02-04T13:11:48;100376.31;;;8.14;64.39
41140;BME280;26881;48.784;9.192;2023-02-04T13:17:10;100376.63;;;7.97;64.79
41140;BME280;26881;48.784;9.192;2023-02-04T13:22:32;100372.13;;;8.05;63.95
41140;BME280;26881;48.784;9.192;2023-02-04T13:27:53;100372.13;;;8.07;63.27
41140;BME280;26881;48.784;9.192;2023-02-04T13:33:15;100376.41;;;8.09;64.09
41140;BME280;26881;48.784;9.192;2023-02-04T13:38:37;100374.72;;;8.07;64.42
41140;BME280;26881;48.784;9.192;2023-02-04T13:43:58;100387.03;;;7.97;64.35
41140;BME280;26881;48.784;9.192;2023-02-04T13:49:20;100400.69;;;8.11;64.76
41140;BME280;26881;48.784;9.192;2023-02-04T13:54:43;100394.50;;;8.15;62.13
41140;BME280;26881;48.784;9.192;2023-02-04T14:00:06;100401.91;;;7.92;62.65
41140;BME280;26881;48.784;9.192;2023-02-04T14:05:28;100410.22;;;8.11;61.50
41140;BME280;26881;48.784;9.192;2023-02-04T14:10:49;100402.66;;;8.00;63.94
41140;BME280;26881;48.784;9.192;2023-02-04T14:16:11;100398.34;;;7.97;62.91
41140;BME280;26881;48.784;9.192;2023-02-04T14:21:33;100399.22;;;7.96;63.99
41140;BME280;26881;48.784;9.192;2023-02-04T14:26:54;100403.50;;;7.99;64.50
41140;BME280;26881;48.784;9.192;2023-02-04T14:32:16;100403.50;;;8.00;63.18
41140;BME280;26881;48.784;9.192;2023-02-04T14:37:38;100419.09;;;8.02;64.69
41140;BME280;26881;48.784;9.192;2023-02-04T14:43:00;100414.63;;;8.09;65.98
41140;BME280;26881;48.784;9.192;2023-02-04T14:48:22;100410.22;;;8.11;64.63
41140;BME280;26881;48.784;9.192;2023-02-04T14:53:43;100416.16;;;8.20;61.18
41140;BME280;26881;48.784;9.192;2023-02-04T14:59:09;100429.19;;;8.20;63.05
41140;BME280;26881;48.784;9.192;2023-02-04T15:04:31;100419.59;;;8.21;63.60
41140;BME280;26881;48.784;9.192;2023-02-04T15:09:53;100430.13;;;8.16;62.99
41140;BME280;26881;48.784;9.192;2023-02-04T15:15:15;100430.78;;;8.28;60.57
41140;BME280;26881;48.784;9.192;2023-02-04T15:20:37;100422.41;;;8.10;60.99
41140;BME280;26881;48.784;9.192;2023-02-04T15:25:59;100425.25;;;7.98;61.97
41140;BME280;26881;48.784;9.192;2023-02-04T15:31:21;100429.81;;;7.85;62.37
41140;BME280;26881;48.784;9.192;2023-02-04T15:36:43;100435.16;;;7.79;62.30
41140;BME280;26881;48.784;9.192;2023-02-04T15:42:05;100435.19;;;7.77;62.07
41140;BME280;26881;48.784;9.192;2023-02-04T15:47:27;100444.84;;;7.71;64.30
41140;BME280;26881;48.784;9.192;2023-02-04T15:52:49;100443.91;;;7.75;62.17
41140;BME280;26881;48.784;9.192;2023-02-04T15:58:11;100444.91;;;7.68;61.81
41140;BME280;26881;48.784;9.192;2023-02-04T16:03:33;100450.88;;;7.74;61.63
41140;BME280;26881;48.784;9.192;2023-02-04T16:08:55;100460.47;;;7.71;62.58
41140;BME280;26881;48.784;9.192;2023-02-04T16:14:16;100454.41;;;7.70;61.49
41140;BME280;26881;48.784;9.192;2023-02-04T16:19:38;100470.13;;;7.64;63.97
41140;BME280;26881;48.784;9.192;2023-02-04T16:25:00;100469.28;;;7.62;63.65
41140;BME280;26881;48.784;9.192;2023-02-04T16:30:21;100481.44;;;7.63;63.06
41140;BME280;26881;48.784;9.192;2023-02-04T16:36:02;100489.88;;;7.76;62.39
41140;BME280;26881;48.784;9.192;2023-02-04T16:41:25;100497.13;;;7.60;62.72
41140;BME280;26881;48.784;9.192;2023-02-04T16:46:46;100490.31;;;7.51;63.72
41140;BME280;26881;48.784;9.192;2023-02-04T16:52:10;100500.03;;;7.38;66.61
41140;BME280;26881;48.784;9.192;2023-02-04T16:57:31;100513.13;;;7.34;67.05
41140;BME280;26881;48.784;9.192;2023-02-04T17:02:53;100504.63;;;7.21;67.55
41140;BME280;26881;48.784;9.192;2023-02-04T17:08:15;100509.13;;;7.10;68.54
41140;BME280;26881;48.784;9.192;2023-02-04T17:13:38;100509.19;;;7.04;68.56
41140;BME280;26881;48.784;9.192;2023-02-04T17:18:59;100512.13;;;6.81;69.65
41140;BME280;26881;48.784;9.192;2023-02-04T17:24:22;100515.53;;;6.83;70.24
41140;BME280;26881;48.784;9.192;2023-02-04T17:29:45;100538.16;;;6.78;69.49
41140;BME280;26881;48.784;9.192;2023-02-04T17:35:06;100533.19;;;6.58;70.18
41140;BME280;26881;48.784;9.192;2023-02-04T17:40:28;100540.22;;;6.49;70.90
41140;BME280;26881;48.784;9.192;2023-02-04T17:45:50;100535.09;;;6.42;71.32
41140;BME280;26881;48.784;9.192;2023-02-04T17:51:12;100549.03;;;6.35;70.93
41140;BME280;26881;48.784;9.192;2023-02-04T17:56:34;100548.19;;;6.34;71.86
41140;BME280;26881;48.784;9.192;2023-02-04T18:01:56;100556.09;;;6.19;71.61
41140;BME280;26881;48.784;9.192;2023-02-04T18:07:18;100562.13;;;6.22;71.25
41140;BME280;26881;48.784;9.192;2023-02-04T18:12:40;100550.16;;;6.09;72.11
41140;BME280;26881;48.784;9.192;2023-02-04T18:23:39;100549.22;;;6.16;72.08
41140;BME280;26881;48.784;9.192;2023-02-04T18:29:05;100543.22;;;6.08;71.74
41140;BME280;26881;48.784;9.192;2023-02-04T18:34:42;100543.31;;;5.97;71.61
41140;BME280;26881;48.784;9.192;2023-02-04T18:45:30;100550.34;;;5.83;72.01
41140;BME280;26881;48.784;9.192;2023-02-04T18:50:53;100550.38;;;5.78;72.37
41140;BME280;26881;48.784;9.192;2023-02-04T18:56:15;100547.78;;;5.75;72.35
41140;BME280;26881;48.784;9.192;2023-02-04T19:01:38;100559.97;;;5.65;72.38
41140;BME280;26881;48.784;9.192;2023-02-04T19:07:00;100554.84;;;5.56;72.72
41140;BME280;26881;48.784;9.192;2023-02-04T19:12:22;100558.28;;;5.60;73.00
41140;BME280;26881;48.784;9.192;2023-02-04T19:17:45;100564.41;;;5.53;73.28
41140;BME280;26881;48.784;9.192;2023-02-04T19:23:13;100565.25;;;5.50;73.51
41140;BME280;26881;48.784;9.192;2023-02-04T19:28:36;100558.31;;;5.52;73.56
41140;BME280;26881;48.784;9.192;2023-02-04T19:34:00;100549.72;;;5.48;74.75
41140;BME280;26881;48.784;9.192;2023-02-04T19:39:37;100554.97;;;5.35;75.19
41140;BME280;26881;48.784;9.192;2023-02-04T19:45:22;100549.81;;;5.30;75.58
41140;BME280;26881;48.784;9.192;2023-02-04T19:50:44;100553.22;;;5.41;75.34
41140;BME280;26881;48.784;9.192;2023-02-04T19:56:37;100554.97;;;5.35;75.80
41140;BME280;26881;48.784;9.192;2023-02-04T20:07:28;100556.75;;;5.28;75.43
41140;BME280;26881;48.784;9.192;2023-02-04T20:13:09;100565.44;;;5.22;75.54
41140;BME280;26881;48.784;9.192;2023-02-04T20:18:32;100560.19;;;5.36;74.97
41140;BME280;26881;48.784;9.192;2023-02-04T20:23:54;100574.13;;;5.12;75.75
41140;BME280;26881;48.784;9.192;2023-02-04T20:29:21;100578.47;;;5.07;75.88
41140;BME280;26881;48.784;9.192;2023-02-04T20:34:43;100582.75;;;5.20;75.93
41140;BME280;26881;48.784;9.192;2023-02-04T20:40:33;100581.84;;;5.21;75.22
41140;BME280;26881;48.784;9.192;2023-02-04T20:45:58;100591.38;;;5.15;75.21
41140;BME280;26881;48.784;9.192;2023-02-04T20:51:22;100593.13;;;5.14;75.07
41140;BME280;26881;48.784;9.192;2023-02-04T20:56:44;100590.56;;;5.11;75.40
41140;BME280;26881;48.784;9.192;2023-02-04T21:02:15;100600.97;;;5.02;76.08
41140;BME280;26881;48.784;9.192;2023-02-04T21:07:37;100607.91;;;4.89;76.78
41140;BME280;26881;48.784;9.192;2023-02-04T21:12:59;100595.78;;;4.96;77.11
41140;BME280;26881;48.784;9.192;2023-02-04T21:18:22;100598.38;;;4.96;76.97
41140;BME280;26881;48.784;9.192;2023-02-04T21:23:43;100599.28;;;4.89;76.86
41140;BME280;26881;48.784;9.192;2023-02-04T21:29:05;100604.56;;;4.52;78.24
41140;BME280;26881;48.784;9.192;2023-02-04T21:34:27;100610.56;;;4.66;77.98
41140;BME280;26881;48.784;9.192;2023-02-04T21:39:49;100605.41;;;4.58;78.23
41140;BME280;26881;48.784;9.192;2023-02-04T21:45:10;100605.44;;;4.48;78.84
41140;BME280;26881;48.784;9.192;2023-02-04T21:50:32;100609.75;;;4.42;79.24
41140;BME280;26881;48.784;9.192;2023-02-04T21:55:54;100610.63;;;4.35;78.86
41140;BME280;26881;48.784;9.192;2023-02-04T22:01:19;100606.31;;;4.37;78.99
41140;BME280;26881;48.784;9.192;2023-02-04T22:06:41;100611.47;;;4.37;79.14
41140;BME280;26881;48.784;9.192;2023-02-04T22:12:03;100608.03;;;4.38;79.05
41140;BME280;26881;48.784;9.192;2023-02-04T22:17:25;100616.63;;;4.59;78.59
41140;BME280;26881;48.784;9.192;2023-02-04T22:22:47;100612.25;;;4.79;78.38
41140;BME280;26881;48.784;9.192;2023-02-04T22:28:09;100613.09;;;4.97;78.13
41140;BME280;26881;48.784;9.192;2023-02-04T22:33:30;100607.88;;;4.98;78.05
41140;BME280;26881;48.784;9.192;2023-02-04T22:38:52;100593.25;;;4.85;78.06
41140;BME280;26881;48.784;9.192;2023-02-04T22:44:14;100595.84;;;4.85;78.40
41140;BME280;26881;48.784;9.192;2023-02-04T22:49:36;100606.19;;;4.86;78.31
41140;BME280;26881;48.784;9.192;2023-02-04T22:54:57;100607.94;;;4.88;78.00
41140;BME280;26881;48.784;9.192;2023-02-04T23:00:19;100624.31;;;4.97;77.54
41140;BME280;26881;48.784;9.192;2023-02-04T23:05:42;100620.84;;;4.94;78.12
41140;BME280;26881;48.784;9.192;2023-02-04T23:11:05;100617.41;;;4.96;77.96
41140;BME280;26881;48.784;9.192;2023-02-04T23:16:27;100618.28;;;4.94;77.94
41140;BME280;26881;48.784;9.192;2023-02-04T23:21:49;100607.06;;;4.87;78.59
41140;BME280;26881;48.784;9.192;2023-02-04T23:27:11;100612.25;;;4.89;78.44
41140;BME280;26881;48.784;9.192;2023-02-04T23:32:33;100613.91;;;5.05;77.50
41140;BME280;26881;48.784;9.192;2023-02-04T23:37:55;100607.88;;;5.03;76.96
41140;BME280;26881;48.784;9.192;2023-02-04T23:43:16;100621.78;;;4.80;77.56
41140;BME280;26881;48.784;9.192;2023-02-04T23:48:38;100626.09;;;4.81;78.38
41140;BME280;26881;48.784;9.192;2023-02-04T23:54:00;100617.44;;;4.84;77.49
41140;BME280;26881;48.784;9.192;2023-02-04T23:59:22;100609.66;;;4.82;77.41
